Time;durP1;ratioP1;P1;durP2;ratioP2;P2;SDS_P1;SDS_P2;PMS_P1;PMS_P2;Temp;Humidity;BMP_temperature;BMP_pressure;BME280_temperature;BME280_humidity;BME280_pressure;Samples;Min_cycle;Max_cycle;Signal;HPM_P1;HPM_P2
2021/10/05 04:01:21;;;;;;;23.47;20.73;;;13.50;99.90;;;;;;5600210;23;20496;-70
2021/10/05 04:03:48;;;;;;;25.33;21.00;;;13.50;99.90;;;;;;5027885;28;20467;-70
2021/10/05 04:06:15;;;;;;;26.87;21.73;;;13.50;99.90;;;;;;5028714;28;20449;-69
2021/10/05 04:08:41;;;;;;;26.77;22.10;;;13.50;99.90;;;;;;5018223;28;20481;-70
2021/10/05 04:11:08;;;;;;;24.87;21.10;;;13.50;99.90;;;;;;5016444;28;20479;-69
2021/10/05 04:13:35;;;;;;;26.87;21.37;;;13.60;99.90;;;;;;5015986;28;20540;-69
2021/10/05 04:16:02;;;;;;;24.13;19.73;;;13.50;99.90;;;;;;5015739;28;20460;-70
2021/10/05 04:18:30;;;;;;;25.13;21.23;;;13.50;99.90;;;;;;5015877;28;20795;-69
2021/10/05 04:20:57;;;;;;;24.30;19.83;;;13.50;99.90;;;;;;5015342;28;20476;-70
2021/10/05 04:23:24;;;;;;;24.00;20.00;;;13.50;99.90;;;;;;5015710;28;20453;-70
2021/10/05 04:25:50;;;;;;;25.23;20.90;;;13.50;99.90;;;;;;5014965;28;20944;-70
2021/10/05 04:28:17;;;;;;;24.50;20.80;;;13.50;99.90;;;;;;5014919;28;20967;-70
2021/10/05 04:30:44;;;;;;;23.40;19.43;;;13.50;99.90;;;;;;5015731;28;20473;-70
2021/10/05 04:33:11;;;;;;;24.17;19.77;;;13.50;99.90;;;;;;5015161;28;20459;-69
2021/10/05 04:35:39;;;;;;;27.03;21.13;;;13.60;99.90;;;;;;5015331;28;20507;-69
2021/10/05 04:38:07;;;;;;;23.43;19.80;;;13.60;99.90;;;;;;5014971;28;20461;-70
2021/10/05 04:40:34;;;;;;;25.00;20.60;;;13.50;99.90;;;;;;5015022;28;20984;-69
2021/10/05 04:43:01;;;;;;;26.93;21.53;;;13.60;99.90;;;;;;5014947;28;20814;-70
2021/10/05 04:45:27;;;;;;;27.10;21.93;;;13.60;99.90;;;;;;5015283;28;20464;-71
2021/10/05 04:47:54;;;;;;;26.00;20.97;;;13.60;99.90;;;;;;5014738;28;20475;-70
2021/10/05 04:50:21;;;;;;;25.47;21.27;;;13.60;99.90;;;;;;5015716;28;20786;-70
2021/10/05 04:52:49;;;;;;;22.87;19.80;;;13.60;99.90;;;;;;5014964;28;20967;-70
2021/10/05 04:55:16;;;;;;;23.10;19.13;;;13.60;99.90;;;;;;5015444;28;20507;-70
2021/10/05 04:57:43;;;;;;;24.60;20.17;;;13.70;99.90;;;;;;5015544;28;20460;-70
2021/10/05 05:00:10;;;;;;;24.87;19.50;;;13.70;99.90;;;;;;5015193;28;20959;-70
2021/10/05 05:02:37;;;;;;;26.50;20.93;;;13.60;99.90;;;;;;5015409;28;20818;-70
2021/10/05 05:05:05;;;;;;;25.50;20.20;;;13.50;99.90;;;;;;5015146;28;20457;-70
2021/10/05 05:07:33;;;;;;;28.00;21.40;;;13.50;99.90;;;;;;5015133;28;20456;-70
2021/10/05 05:10:02;;;;;;;28.87;21.60;;;13.40;99.90;;;;;;5014600;28;20524;-70
2021/10/05 05:12:29;;;;;;;26.07;20.97;;;13.40;99.90;;;;;;5015005;28;20904;-70
2021/10/05 05:14:56;;;;;;;26.80;21.03;;;13.40;99.90;;;;;;5014863;28;20460;-70
2021/10/05 05:17:22;;;;;;;30.33;21.80;;;13.40;99.90;;;;;;5015019;28;20948;-69
2021/10/05 05:19:49;;;;;;;25.90;20.10;;;13.40;99.90;;;;;;5014822;28;20449;-70
2021/10/05 05:22:16;;;;;;;26.33;21.50;;;13.40;99.90;;;;;;5015685;28;20484;-70
2021/10/05 05:24:43;;;;;;;28.17;20.30;;;13.40;99.90;;;;;;5017130;28;20437;-70
2021/10/05 05:27:11;;;;;;;28.57;20.70;;;13.40;99.90;;;;;;5014202;28;20479;-71
2021/10/05 05:29:38;;;;;;;28.70;20.73;;;13.40;99.90;;;;;;5014412;28;21091;-70
2021/10/05 05:32:05;;;;;;;28.87;20.77;;;13.40;99.90;;;;;;5014302;28;20843;-70
2021/10/05 05:34:32;;;;;;;26.80;20.20;;;13.40;99.90;;;;;;5015030;28;20459;-70
2021/10/05 05:36:58;;;;;;;29.60;22.60;;;13.40;99.90;;;;;;5014523;28;20457;-70
2021/10/05 05:39:25;;;;;;;30.20;22.30;;;13.40;99.90;;;;;;5014776;28;20453;-70
2021/10/05 05:41:52;;;;;;;28.37;20.13;;;13.40;99.90;;;;;;5014596;28;20473;-70
2021/10/05 05:44:20;;;;;;;28.33;19.43;;;13.40;99.90;;;;;;5014673;28;20821;-71
2021/10/05 05:46:47;;;;;;;26.50;19.40;;;13.40;99.90;;;;;;5014644;28;20463;-71
2021/10/05 05:49:14;;;;;;;27.70;20.03;;;13.40;99.90;;;;;;5017103;28;20848;-70
2021/10/05 05:51:41;;;;;;;30.77;21.27;;;13.50;99.90;;;;;;5017775;28;20505;-69
2021/10/05 05:54:08;;;;;;;28.93;20.83;;;13.50;99.90;;;;;;5017263;28;20801;-69
2021/10/05 05:56:35;;;;;;;28.07;20.03;;;13.50;99.90;;;;;;5021133;28;20456;-69
2021/10/05 05:59:02;;;;;;;33.20;21.33;;;13.50;99.90;;;;;;5021447;28;20503;-70
2021/10/05 06:01:31;;;;;;;30.67;20.17;;;13.50;99.90;;;;;;5019401;28;20477;-70
2021/10/05 06:03:57;;;;;;;34.10;22.50;;;13.50;99.90;;;;;;5018946;28;20456;-71
2021/10/05 06:06:24;;;;;;;30.40;21.63;;;13.50;99.90;;;;;;5019668;28;20460;-69
2021/10/05 06:08:51;;;;;;;30.50;22.03;;;13.50;99.90;;;;;;5019961;28;20983;-69
2021/10/05 06:11:18;;;;;;;35.43;22.97;;;13.50;99.90;;;;;;5018330;28;20479;-69
2021/10/05 06:13:47;;;;;;;33.50;22.60;;;13.40;99.90;;;;;;5018505;28;20456;-69
2021/10/05 06:16:13;;;;;;;31.43;21.40;;;13.40;99.90;;;;;;5018743;28;20886;-70
2021/10/05 06:18:41;;;;;;;33.07;22.23;;;13.40;99.90;;;;;;5017388;28;20449;-69
2021/10/05 06:21:08;;;;;;;31.00;21.77;;;13.50;99.90;;;;;;5017732;28;20505;-69
2021/10/05 06:23:35;;;;;;;33.23;22.93;;;13.50;99.90;;;;;;5018083;28;20456;-69
2021/10/05 06:26:02;;;;;;;31.00;21.83;;;13.60;99.90;;;;;;5018358;28;20460;-70
2021/10/05 06:28:29;;;;;;;33.43;23.00;;;13.60;99.90;;;;;;5017866;28;20647;-70
2021/10/05 06:30:55;;;;;;;35.77;22.57;;;13.60;99.90;;;;;;5017945;28;20472;-70
2021/10/05 06:33:22;;;;;;;33.40;22.67;;;13.60;99.90;;;;;;5017933;28;20864;-70
2021/10/05 06:35:50;;;;;;;31.40;21.93;;;13.50;99.90;;;;;;5017446;28;20457;-70
2021/10/05 06:38:17;;;;;;;34.97;22.83;;;13.60;99.90;;;;;;5018171;28;20495;-70
2021/10/05 06:40:44;;;;;;;26.10;20.17;;;13.60;99.90;;;;;;5018740;28;20556;-70
2021/10/05 06:43:11;;;;;;;25.50;19.23;;;13.70;99.90;;;;;;5017635;28;20457;-70
2021/10/05 06:45:38;;;;;;;25.70;19.77;;;13.80;99.90;;;;;;5017754;28;20456;-70
2021/10/05 06:48:05;;;;;;;24.40;19.10;;;13.90;99.90;;;;;;5017414;28;20826;-70
2021/10/05 06:50:34;;;;;;;27.57;19.90;;;13.90;99.90;;;;;;5017086;28;20484;-71
2021/10/05 06:53:03;;;;;;;28.40;20.50;;;14.00;99.90;;;;;;5017821;28;20449;-70
2021/10/05 06:55:30;;;;;;;25.27;19.13;;;14.00;99.90;;;;;;5022392;28;20932;-70
2021/10/05 06:57:57;;;;;;;24.53;19.37;;;14.00;99.90;;;;;;5017563;28;20511;-70
2021/10/05 07:00:24;;;;;;;25.17;20.00;;;14.10;99.90;;;;;;5018187;28;20453;-70
2021/10/05 07:02:51;;;;;;;22.80;19.50;;;14.10;99.90;;;;;;5017329;28;20447;-70
2021/10/05 07:05:20;;;;;;;25.30;18.70;;;14.20;99.90;;;;;;5016217;28;20456;-70
2021/10/05 07:07:49;;;;;;;22.30;18.87;;;14.10;99.90;;;;;;5016203;28;20457;-70
2021/10/05 07:10:19;;;;;;;23.50;18.70;;;14.20;99.90;;;;;;5016403;28;20834;-70
2021/10/05 07:12:46;;;;;;;23.30;19.27;;;14.20;99.90;;;;;;5017154;28;20442;-70
2021/10/05 07:15:15;;;;;;;25.03;19.67;;;14.20;99.90;;;;;;5016539;28;20452;-70
2021/10/05 07:17:42;;;;;;;25.80;19.50;;;14.20;99.90;;;;;;5017104;28;20456;-70
2021/10/05 07:20:10;;;;;;;25.13;19.70;;;14.20;99.90;;;;;;5016977;28;20461;-70
2021/10/05 07:22:37;;;;;;;27.63;20.13;;;14.10;99.90;;;;;;5016528;28;20460;-71
2021/10/05 07:25:04;;;;;;;25.60;19.87;;;14.20;99.90;;;;;;5016903;28;20810;-71
2021/10/05 07:27:32;;;;;;;24.77;20.27;;;14.20;99.90;;;;;;5016601;28;20975;-71
2021/10/05 07:30:01;;;;;;;25.63;19.50;;;14.30;99.90;;;;;;5016778;28;20484;-71
2021/10/05 07:32:28;;;;;;;22.50;17.90;;;14.30;99.90;;;;;;5024672;28;20457;-71
2021/10/05 07:34:54;;;;;;;21.60;18.23;;;14.30;99.90;;;;;;5031711;28;20449;-71
2021/10/05 07:37:21;;;;;;;29.20;18.77;;;14.30;99.90;;;;;;5020029;28;20851;-70
2021/10/05 07:39:48;;;;;;;23.40;20.30;;;14.40;99.90;;;;;;5017051;28;20460;-70
2021/10/05 07:42:14;;;;;;;21.83;18.03;;;14.40;99.90;;;;;;5016218;28;20480;-69
2021/10/05 07:44:43;;;;;;;20.70;18.23;;;14.40;99.90;;;;;;5017473;28;20453;-70
2021/10/05 07:47:09;;;;;;;23.90;19.10;;;14.50;99.90;;;;;;5018743;28;20460;-70
2021/10/05 07:49:36;;;;;;;22.40;18.13;;;14.60;99.90;;;;;;5017952;28;20477;-70
2021/10/05 07:52:04;;;;;;;24.50;18.87;;;14.70;99.90;;;;;;5016340;28;20580;-70
2021/10/05 07:54:30;;;;;;;21.40;18.73;;;14.70;99.90;;;;;;5015969;28;20464;-69
2021/10/05 07:56:57;;;;;;;22.80;19.33;;;14.70;99.90;;;;;;5015809;28;20963;-69
2021/10/05 07:59:24;;;;;;;19.50;17.50;;;14.80;99.90;;;;;;5015960;28;20452;-69
2021/10/05 08:01:53;;;;;;;19.83;17.83;;;15.00;99.90;;;;;;5015736;28;20491;-70
2021/10/05 08:04:20;;;;;;;18.30;16.33;;;15.00;99.90;;;;;;5015868;28;20456;-69
2021/10/05 08:06:47;;;;;;;15.50;13.87;;;15.10;99.90;;;;;;5015860;28;20457;-69
2021/10/05 08:09:15;;;;;;;15.43;13.97;;;15.20;99.90;;;;;;5015584;28;20796;-70
2021/10/05 08:11:42;;;;;;;16.03;14.37;;;15.30;99.90;;;;;;5015827;28;20912;-71
2021/10/05 08:14:09;;;;;;;15.87;14.30;;;15.40;99.90;;;;;;5016210;28;20460;-72
2021/10/05 08:16:36;;;;;;;14.93;13.50;;;15.20;99.90;;;;;;5016077;28;20453;-72
2021/10/05 08:19:05;;;;;;;15.20;13.70;;;15.20;99.90;;;;;;5014821;28;20459;-72
2021/10/05 08:21:33;;;;;;;16.00;14.47;;;15.30;99.90;;;;;;5015159;28;20484;-72
2021/10/05 08:24:00;;;;;;;15.97;14.37;;;15.30;99.90;;;;;;5015216;28;20940;-72
2021/10/05 08:26:27;;;;;;;15.53;14.03;;;15.20;99.90;;;;;;5019954;28;20457;-72
2021/10/05 08:28:54;;;;;;;17.13;14.60;;;15.20;99.90;;;;;;5015217;28;20459;-72
2021/10/05 08:31:20;;;;;;;15.50;14.00;;;15.30;99.90;;;;;;5015295;28;20832;-72
2021/10/05 08:33:49;;;;;;;15.17;13.77;;;15.40;99.90;;;;;;5015216;28;20461;-72
2021/10/05 08:36:17;;;;;;;17.40;13.60;;;15.40;99.90;;;;;;5015150;28;20452;-72
2021/10/05 08:38:45;;;;;;;13.83;12.37;;;15.50;99.90;;;;;;5015980;28;20453;-72
2021/10/05 08:41:12;;;;;;;14.50;13.10;;;15.50;99.90;;;;;;5015134;28;20480;-72
2021/10/05 08:43:41;;;;;;;15.50;14.00;;;15.60;99.90;;;;;;5015085;28;20457;-73
2021/10/05 08:46:08;;;;;;;14.30;12.90;;;15.70;99.90;;;;;;5015007;28;20456;-72
2021/10/05 08:48:37;;;;;;;14.60;13.20;;;15.70;99.90;;;;;;5015191;28;20438;-72
2021/10/05 08:51:06;;;;;;;12.87;11.57;;;15.70;99.90;;;;;;5015056;28;20484;-71
2021/10/05 08:53:37;;;;;;;11.80;10.20;;;15.70;99.90;;;;;;5015033;28;20457;-71
2021/10/05 08:56:06;;;;;;;10.97;9.90;;;15.60;99.90;;;;;;5015469;28;20452;-71
2021/10/05 08:58:33;;;;;;;11.83;10.73;;;15.70;99.90;;;;;;5015605;28;20448;-71
2021/10/05 09:01:08;;;;;;;10.77;9.77;;;15.60;99.90;;;;;;5014856;28;20485;-68
2021/10/05 09:03:35;;;;;;;11.47;10.47;;;15.60;99.90;;;;;;5014850;28;20449;-68
2021/10/05 09:06:10;;;;;;;11.67;10.67;;;15.70;99.90;;;;;;5014791;28;20854;-68
2021/10/05 09:08:40;;;;;;;9.77;8.77;;;15.80;99.90;;;;;;5015537;28;20449;-71
2021/10/05 09:11:07;;;;;;;8.27;7.57;;;15.80;99.90;;;;;;5014974;28;20489;-71
2021/10/05 09:13:36;;;;;;;9.30;7.73;;;15.80;99.90;;;;;;5014678;28;20456;-72
2021/10/05 09:16:03;;;;;;;9.60;8.70;;;15.80;99.90;;;;;;5014483;28;20983;-72
2021/10/05 09:18:31;;;;;;;12.07;10.97;;;15.80;99.90;;;;;;5015096;28;20457;-72
2021/10/05 09:20:57;;;;;;;11.50;10.27;;;15.80;99.90;;;;;;5014374;28;21006;-72
2021/10/05 09:23:24;;;;;;;12.47;11.27;;;15.80;99.90;;;;;;5014541;28;20479;-72
2021/10/05 09:25:52;;;;;;;9.90;9.10;;;15.80;99.90;;;;;;5014549;28;20477;-72
2021/10/05 09:28:21;;;;;;;9.50;8.70;;;15.70;99.90;;;;;;5014654;28;20460;-71
2021/10/05 09:31:04;;;;;;;10.10;9.20;;;15.70;99.90;;;;;;5016035;28;20481;-71
2021/10/05 09:33:32;;;;;;;8.70;7.93;;;15.70;99.90;;;;;;5018446;28;20805;-71
2021/10/05 09:35:59;;;;;;;8.77;7.97;;;15.70;99.90;;;;;;5018477;28;20458;-71
2021/10/05 09:38:28;;;;;;;8.13;7.43;;;15.70;99.90;;;;;;5018529;28;20463;-72
2021/10/05 09:41:02;;;;;;;7.97;7.27;;;15.70;99.90;;;;;;5018385;28;20492;-71
2021/10/05 09:43:29;;;;;;;7.47;6.90;;;15.70;99.90;;;;;;5018274;28;20444;-71
2021/10/05 09:46:09;;;;;;;9.30;8.50;;;15.70;99.90;;;;;;5017863;28;20940;-73
2021/10/05 09:48:37;;;;;;;7.30;6.60;;;15.80;99.90;;;;;;5017990;28;20562;-71
2021/10/05 09:51:16;;;;;;;6.97;6.47;;;15.90;99.90;;;;;;5018243;28;20551;-71
2021/10/05 09:53:43;;;;;;;7.87;7.10;;;16.10;99.90;;;;;;5018559;28;20808;-71
2021/10/05 09:56:13;;;;;;;10.60;8.77;;;16.20;99.90;;;;;;5024318;28;20456;-72
2021/10/05 09:58:40;;;;;;;20.47;14.97;;;16.30;99.90;;;;;;5024053;28;20453;-71
2021/10/05 10:01:07;;;;;;;6.53;6.03;;;16.50;99.90;;;;;;5018266;28;20562;-72
2021/10/05 10:03:34;;;;;;;6.43;5.83;;;16.70;99.90;;;;;;5018736;28;20564;-72
2021/10/05 10:06:02;;;;;;;6.37;5.97;;;16.60;99.90;;;;;;5018517;28;20461;-72
2021/10/05 10:08:31;;;;;;;6.73;6.13;;;16.60;99.90;;;;;;5017705;28;20464;-71
2021/10/05 10:10:58;;;;;;;7.00;6.50;;;16.60;99.90;;;;;;5017292;28;21047;-71
2021/10/05 10:13:27;;;;;;;6.57;6.07;;;16.70;99.90;;;;;;5017546;28;21008;-71
2021/10/05 10:15:58;;;;;;;6.40;5.90;;;16.90;99.90;;;;;;5018661;28;20440;-71
2021/10/05 10:18:25;;;;;;;5.90;5.50;;;17.00;99.90;;;;;;5018783;28;20448;-70
2021/10/05 10:21:04;;;;;;;6.03;5.53;;;17.10;99.90;;;;;;5017673;28;20472;-71
2021/10/05 10:23:31;;;;;;;6.40;5.90;;;17.10;99.90;;;;;;5018148;28;20440;-71
2021/10/05 10:26:02;;;;;;;5.27;4.87;;;17.10;99.90;;;;;;5020461;28;20528;-71
2021/10/05 10:28:32;;;;;;;5.37;5.00;;;17.00;99.90;;;;;;5019372;28;20437;-72
2021/10/05 10:31:01;;;;;;;5.77;5.30;;;17.10;99.90;;;;;;5017762;28;20850;-72
2021/10/05 10:33:41;;;;;;;4.60;4.30;;;17.20;99.90;;;;;;5017476;28;20510;-73
2021/10/05 10:36:09;;;;;;;5.07;4.50;;;17.10;99.90;;;;;;5018423;28;20445;-72
2021/10/05 10:38:36;;;;;;;4.80;4.50;;;17.20;99.90;;;;;;5018145;28;20481;-72
2021/10/05 10:41:15;;;;;;;5.33;4.10;;;17.30;99.90;;;;;;5017398;28;20472;-72
2021/10/05 10:43:51;;;;;;;4.70;4.30;;;17.30;99.90;;;;;;5017594;28;20912;-73
2021/10/05 10:46:24;;;;;;;4.37;3.83;;;17.40;99.90;;;;;;5018004;28;20440;-72
2021/10/05 10:48:55;;;;;;;5.50;5.20;;;17.50;99.90;;;;;;5017565;28;20437;-72
2021/10/05 10:51:26;;;;;;;4.83;4.43;;;17.40;99.90;;;;;;5016961;28;20508;-71
2021/10/05 10:53:54;;;;;;;5.07;4.67;;;17.30;99.90;;;;;;5017091;28;20797;-71
2021/10/05 10:56:32;;;;;;;5.30;5.00;;;17.30;99.90;;;;;;5016603;28;20955;-71
2021/10/05 10:59:02;;;;;;;4.67;4.27;;;17.10;99.90;;;;;;5016528;28;20827;-72
2021/10/05 11:01:41;;;;;;;5.30;4.83;;;16.80;99.90;;;;;;5016515;28;20483;-72
2021/10/05 11:04:10;;;;;;;4.60;4.30;;;16.80;99.90;;;;;;5016819;28;20445;-72
2021/10/05 11:06:37;;;;;;;4.63;4.33;;;16.90;99.90;;;;;;5016877;28;20460;-72
2021/10/05 11:09:06;;;;;;;7.70;4.63;;;17.00;99.90;;;;;;5016768;28;20461;-72
2021/10/05 11:11:38;;;;;;;4.90;4.53;;;17.00;99.90;;;;;;5016782;28;20485;-72
2021/10/05 11:14:09;;;;;;;4.30;4.10;;;17.00;99.90;;;;;;5016771;28;20438;-72
2021/10/05 11:16:38;;;;;;;3.90;3.70;;;16.90;99.90;;;;;;5016743;28;20441;-68
2021/10/05 11:19:06;;;;;;;4.07;3.67;;;17.10;99.90;;;;;;5016641;28;20453;-68
2021/10/05 11:21:34;;;;;;;4.30;3.20;;;17.20;99.90;;;;;;5016463;28;20475;-69
2021/10/05 11:24:01;;;;;;;3.80;3.50;;;17.50;99.90;;;;;;5016507;28;20575;-69
2021/10/05 11:26:33;;;;;;;3.20;2.90;;;17.80;99.90;;;;;;5016878;28;20463;-68
2021/10/05 11:29:01;;;;;;;2.40;2.30;;;17.80;99.90;;;;;;5019177;28;21009;-69
2021/10/05 11:31:41;;;;;;;3.23;3.03;;;17.80;99.90;;;;;;5016496;28;20491;-69
2021/10/05 11:34:08;;;;;;;3.40;3.20;;;17.90;99.90;;;;;;5016154;28;20492;-68
2021/10/05 11:36:34;;;;;;;2.90;2.70;;;18.30;99.90;;;;;;5016434;28;20479;-68
2021/10/05 11:39:02;;;;;;;2.10;2.00;;;18.30;99.90;;;;;;5015994;28;20453;-68
2021/10/05 11:41:37;;;;;;;2.70;2.50;;;18.40;99.90;;;;;;5016017;28;20531;-68
2021/10/05 11:44:15;;;;;;;2.43;2.33;;;18.50;99.90;;;;;;5016029;28;20453;-68
2021/10/05 11:46:56;;;;;;;2.40;2.30;;;18.70;99.90;;;;;;5017407;28;20440;-69
2021/10/05 11:49:24;;;;;;;2.30;2.10;;;18.80;99.90;;;;;;5023087;28;20437;-69
2021/10/05 11:51:52;;;;;;;2.53;2.43;;;18.90;99.90;;;;;;5016057;28;20484;-69
2021/10/05 11:54:24;;;;;;;2.13;2.03;;;18.90;99.90;;;;;;5015348;28;20974;-70
2021/10/05 11:56:51;;;;;;;2.40;2.30;;;18.80;99.90;;;;;;5016101;28;20449;-66
2021/10/05 11:59:27;;;;;;;2.40;2.20;;;18.90;99.90;;;;;;5015253;28;20971;-67
2021/10/05 12:01:58;;;;;;;1.73;1.63;;;18.90;99.90;;;;;;5015393;28;20535;-63
2021/10/05 12:04:27;;;;;;;1.87;1.77;;;18.90;99.90;;;;;;5015154;28;20905;-66
2021/10/05 12:06:56;;;;;;;2.07;1.90;;;18.90;99.90;;;;;;5015977;28;20441;-68
2021/10/05 12:09:27;;;;;;;1.83;1.83;;;18.80;99.90;;;;;;5015425;28;20453;-66
2021/10/05 12:11:58;;;;;;;2.07;1.97;;;18.80;99.90;;;;;;5015531;28;20485;-66
2021/10/05 12:14:30;;;;;;;2.03;1.93;;;18.70;99.90;;;;;;5015490;28;20437;-68
2021/10/05 12:17:01;;;;;;;1.70;1.60;;;18.60;99.90;;;;;;5015361;28;20445;-66
2021/10/05 12:19:29;;;;;;;1.53;1.43;;;18.40;99.90;;;;;;5015986;28;20452;-66
2021/10/05 12:21:57;;;;;;;1.17;1.17;;;18.50;99.90;;;;;;5015382;28;20810;-66
2021/10/05 12:24:36;;;;;;;1.50;1.50;;;18.50;99.90;;;;;;5015396;28;20480;-67
2021/10/05 12:27:03;;;;;;;2.17;1.87;;;18.50;99.90;;;;;;5015572;28;20448;-70
2021/10/05 12:29:29;;;;;;;1.10;1.10;;;18.60;99.90;;;;;;5015729;28;20457;-70
2021/10/05 12:31:59;;;;;;;1.10;1.10;;;18.50;99.90;;;;;;5015082;28;20484;-70
2021/10/05 12:34:36;;;;;;;1.30;1.30;;;18.50;99.90;;;;;;5015432;28;20457;-70
2021/10/05 12:37:05;;;;;;;2.50;1.40;;;18.50;99.90;;;;;;5015361;28;20479;-71
2021/10/05 12:39:32;;;;;;;1.23;1.00;;;18.40;99.90;;;;;;5015391;28;20453;-70
2021/10/05 12:42:01;;;;;;;1.10;1.10;;;18.50;99.90;;;;;;5014875;28;21075;-69
2021/10/05 12:44:32;;;;;;;2.20;2.10;;;18.50;99.90;;;;;;5015407;28;20479;-69
2021/10/05 12:47:05;;;;;;;0.90;0.90;;;18.60;99.90;;;;;;5015265;28;20444;-69
2021/10/05 12:49:32;;;;;;;1.37;1.37;;;18.50;99.90;;;;;;5015549;28;20460;-70
2021/10/05 12:51:59;;;;;;;1.00;1.00;;;18.50;99.90;;;;;;5015056;28;20863;-69
2021/10/05 12:54:26;;;;;;;1.00;1.00;;;18.60;99.90;;;;;;5015099;28;20457;-69
2021/10/05 12:56:53;;;;;;;1.00;1.00;;;18.70;99.90;;;;;;5016206;28;20441;-71
2021/10/05 12:59:20;;;;;;;1.00;1.00;;;18.80;99.90;;;;;;5026294;28;20836;-71
2021/10/05 13:01:47;;;;;;;0.90;0.90;;;18.90;99.90;;;;;;5015942;28;20491;-71
2021/10/05 13:04:16;;;;;;;1.03;1.03;;;18.90;99.90;;;;;;5015126;28;20452;-71
2021/10/05 13:06:43;;;;;;;1.80;0.70;;;18.80;99.90;;;;;;5014856;28;20817;-71
2021/10/05 13:09:11;;;;;;;0.70;0.70;;;18.80;99.90;;;;;;5017681;28;20464;-71
2021/10/05 13:11:40;;;;;;;0.90;0.90;;;18.70;99.90;;;;;;5014574;28;20483;-72
2021/10/05 13:14:07;;;;;;;3.10;1.00;;;18.70;99.90;;;;;;5015161;28;20461;-72
2021/10/05 13:16:34;;;;;;;0.63;0.63;;;18.70;99.90;;;;;;5014778;28;20457;-72
2021/10/05 13:19:00;;;;;;;1.80;0.90;;;19.00;99.90;;;;;;5015069;28;20452;-72
2021/10/05 13:21:28;;;;;;;0.80;0.80;;;19.30;99.90;;;;;;5014198;28;20983;-72
2021/10/05 13:23:55;;;;;;;0.60;0.60;;;19.70;99.90;;;;;;5014373;28;20528;-71
2021/10/05 13:26:22;;;;;;;0.80;0.63;;;20.00;99.90;;;;;;5014268;28;20457;-71
2021/10/05 13:28:49;;;;;;;0.60;0.60;;;20.20;99.90;;;;;;5014715;28;20456;-71
2021/10/05 13:31:16;;;;;;;0.90;0.90;;;20.60;99.90;;;;;;5014234;28;20639;-71
2021/10/05 13:33:42;;;;;;;1.40;0.93;;;20.90;99.90;;;;;;5014312;28;20457;-71
2021/10/05 13:36:09;;;;;;;1.10;1.10;;;21.10;99.90;;;;;;5014331;28;20849;-71
2021/10/05 13:38:37;;;;;;;0.70;0.70;;;21.20;99.90;;;;;;5014274;28;20480;-71
2021/10/05 13:41:08;;;;;;;0.97;0.53;;;21.20;99.90;;;;;;5014365;28;20465;-71
2021/10/05 13:43:35;;;;;;;0.70;0.70;;;21.20;99.90;;;;;;5015560;28;20531;-71
2021/10/05 13:46:02;;;;;;;0.90;0.90;;;21.30;99.90;;;;;;5016123;28;20967;-72
2021/10/05 13:48:28;;;;;;;1.13;0.87;;;21.20;99.90;;;;;;5014275;28;20460;-72
2021/10/05 13:50:55;;;;;;;0.70;0.70;;;21.40;99.90;;;;;;5013961;28;20472;-72
2021/10/05 13:53:23;;;;;;;0.67;0.50;;;21.60;99.90;;;;;;5014297;28;20453;-73
2021/10/05 13:55:51;;;;;;;0.93;0.83;;;21.40;99.90;;;;;;5014122;28;20499;-73
2021/10/05 13:58:17;;;;;;;0.60;0.60;;;21.00;99.90;;;;;;5014255;28;20534;-73
2021/10/05 14:00:46;;;;;;;0.70;0.70;;;20.80;99.90;;;;;;5013937;28;20484;-72
2021/10/05 14:03:13;;;;;;;0.70;0.70;;;20.50;99.90;;;;;;5014368;28;20540;-72
2021/10/05 14:05:40;;;;;;;0.70;0.70;;;20.30;99.90;;;;;;5015377;28;20453;-72
2021/10/05 14:08:06;;;;;;;0.90;0.90;;;20.30;99.90;;;;;;5016996;28;20464;-72
2021/10/05 14:10:33;;;;;;;1.03;0.70;;;20.10;99.90;;;;;;5016580;28;20506;-74
2021/10/05 14:13:01;;;;;;;0.60;0.60;;;19.80;99.90;;;;;;5016984;28;20991;-73
2021/10/05 14:15:28;;;;;;;0.70;0.70;;;19.60;99.90;;;;;;5016348;28;20457;-74
2021/10/05 14:17:55;;;;;;;1.43;0.60;;;19.30;99.90;;;;;;5017855;28;20456;-74
2021/10/05 14:20:22;;;;;;;0.70;0.70;;;19.20;99.90;;;;;;5018172;28;20515;-73
2021/10/05 14:22:49;;;;;;;3.13;0.50;;;19.00;99.90;;;;;;5018208;28;20456;-73
2021/10/05 14:25:18;;;;;;;1.43;0.83;;;19.00;99.90;;;;;;5017889;28;20483;-74
2021/10/05 14:27:47;;;;;;;0.80;0.80;;;18.90;99.90;;;;;;5018282;28;20484;-74
2021/10/05 14:30:16;;;;;;;0.70;0.70;;;18.90;99.90;;;;;;5022336;28;20456;-73
2021/10/05 14:32:44;;;;;;;0.60;0.60;;;19.00;99.90;;;;;;5018403;28;20476;-74
2021/10/05 14:35:12;;;;;;;0.57;0.57;;;19.20;99.90;;;;;;5017602;28;20460;-74
2021/10/05 14:37:39;;;;;;;0.50;0.50;;;19.30;99.90;;;;;;5017217;28;20507;-74
2021/10/05 14:40:08;;;;;;;0.50;0.50;;;19.60;99.90;;;;;;5017477;28;20453;-73
2021/10/05 14:42:34;;;;;;;0.50;0.50;;;19.70;99.90;;;;;;5017289;28;20472;-74
2021/10/05 14:45:01;;;;;;;0.70;0.70;;;19.90;99.90;;;;;;5017529;28;20460;-74
2021/10/05 14:47:29;;;;;;;0.63;0.63;;;19.90;99.90;;;;;;5017678;28;20615;-74
2021/10/05 14:49:56;;;;;;;0.83;0.60;;;19.80;99.90;;;;;;5017515;28;20449;-74
2021/10/05 14:52:23;;;;;;;1.00;1.00;;;19.60;99.90;;;;;;5017412;28;20484;-73
2021/10/05 14:54:50;;;;;;;0.70;0.70;;;19.40;99.90;;;;;;5018360;28;20459;-74
2021/10/05 14:57:17;;;;;;;0.80;0.80;;;19.20;99.90;;;;;;5021889;28;20483;-74
2021/10/05 14:59:44;;;;;;;3.13;1.03;;;18.90;99.90;;;;;;5032065;28;20455;-74
2021/10/05 15:02:11;;;;;;;0.83;0.83;;;18.70;99.90;;;;;;5025539;28;20523;-73
2021/10/05 15:04:42;;;;;;;1.33;0.90;;;18.60;99.90;;;;;;5017847;28;20437;-74
2021/10/05 15:07:09;;;;;;;1.03;0.93;;;18.50;99.90;;;;;;5017495;28;20441;-74
2021/10/05 15:09:36;;;;;;;0.67;0.67;;;18.50;99.90;;;;;;5019080;28;20445;-73
2021/10/05 15:12:03;;;;;;;1.43;1.00;;;18.50;99.90;;;;;;5015949;28;20480;-73
2021/10/05 15:14:30;;;;;;;0.80;0.60;;;18.40;99.90;;;;;;5016425;28;20453;-73
2021/10/05 15:16:56;;;;;;;0.87;0.80;;;18.40;99.90;;;;;;5016727;28;20511;-74
2021/10/05 15:19:23;;;;;;;0.60;0.60;;;18.40;99.90;;;;;;5016136;28;20460;-74
2021/10/05 15:21:51;;;;;;;0.80;0.80;;;18.50;99.90;;;;;;5016533;28;20476;-74
2021/10/05 15:24:18;;;;;;;0.70;0.70;;;18.50;99.90;;;;;;5016644;28;20453;-75
2021/10/05 15:26:45;;;;;;;0.63;0.63;;;18.50;99.90;;;;;;5016320;28;20836;-73
2021/10/05 15:29:12;;;;;;;0.87;0.87;;;18.50;99.90;;;;;;5016338;28;20457;-74
2021/10/05 15:31:38;;;;;;;0.90;0.90;;;18.30;99.90;;;;;;5016287;28;20485;-74
2021/10/05 15:34:05;;;;;;;0.73;0.73;;;18.20;99.90;;;;;;5016879;28;20453;-74
2021/10/05 15:36:32;;;;;;;0.70;0.70;;;18.20;99.90;;;;;;5016294;28;20940;-74
2021/10/05 15:39:00;;;;;;;0.80;0.73;;;18.00;99.90;;;;;;5016593;28;20464;-74
2021/10/05 15:41:27;;;;;;;1.80;0.80;;;18.00;99.90;;;;;;5016208;28;20479;-74
2021/10/05 15:43:54;;;;;;;0.80;0.80;;;17.90;99.90;;;;;;5016409;28;20974;-74
2021/10/05 15:46:23;;;;;;;1.17;0.70;;;17.90;99.90;;;;;;5022788;28;20461;-73
2021/10/05 15:48:50;;;;;;;1.60;1.00;;;17.80;99.90;;;;;;5016358;28;20449;-74
2021/10/05 15:51:23;;;;;;;0.90;0.90;;;17.90;99.90;;;;;;5016037;28;20480;-74
2021/10/05 15:53:50;;;;;;;0.70;0.70;;;17.90;99.90;;;;;;5016088;28;20441;-74
2021/10/05 15:56:18;;;;;;;2.53;1.00;;;17.80;99.90;;;;;;5016188;28;20457;-73
2021/10/05 15:58:44;;;;;;;1.23;0.80;;;17.80;99.90;;;;;;5016477;28;20452;-73
2021/10/05 16:01:11;;;;;;;0.93;0.93;;;17.80;99.90;;;;;;5017792;28;20484;-72
2021/10/05 16:03:38;;;;;;;1.03;0.90;;;17.80;99.90;;;;;;5017326;28;20445;-73
2021/10/05 16:06:05;;;;;;;2.50;1.23;;;17.90;99.90;;;;;;5016235;28;20456;-73
2021/10/05 16:08:34;;;;;;;1.00;1.00;;;17.80;99.90;;;;;;5015942;28;20479;-69
2021/10/05 16:11:01;;;;;;;0.90;0.90;;;17.80;99.90;;;;;;5015494;28;20476;-70
2021/10/05 16:13:30;;;;;;;0.93;0.93;;;17.80;99.90;;;;;;5015589;28;20481;-70
2021/10/05 16:15:56;;;;;;;1.20;1.20;;;17.80;99.90;;;;;;5015180;28;20467;-70
2021/10/05 16:18:23;;;;;;;1.40;1.30;;;17.70;99.90;;;;;;5016192;28;20809;-70
2021/10/05 16:20:50;;;;;;;1.20;1.20;;;17.60;99.90;;;;;;5015993;28;20477;-73
2021/10/05 16:23:17;;;;;;;1.20;1.20;;;17.60;99.90;;;;;;5015537;28;20460;-73
2021/10/05 16:25:43;;;;;;;1.10;1.10;;;17.60;99.90;;;;;;5015634;28;20818;-69
2021/10/05 16:28:11;;;;;;;1.87;1.23;;;17.70;99.90;;;;;;5015379;28;20809;-76
2021/10/05 16:30:39;;;;;;;3.23;1.10;;;17.60;99.90;;;;;;5015561;28;20531;-73
2021/10/05 16:33:06;;;;;;;1.03;1.03;;;17.60;99.90;;;;;;5015415;28;20477;-72
2021/10/05 16:35:33;;;;;;;1.07;1.00;;;17.60;99.90;;;;;;5015484;28;20452;-70
2021/10/05 16:38:00;;;;;;;0.80;0.80;;;17.60;99.90;;;;;;5015420;28;20452;-68
2021/10/05 16:40:27;;;;;;;0.90;0.90;;;17.60;99.90;;;;;;5014714;28;20459;-69
2021/10/05 16:42:53;;;;;;;1.07;1.03;;;17.60;99.90;;;;;;5015584;28;20444;-69